KNJM

Bogue Field McAlf Airport

Swansboro, North Carolina, USA
METAR KNJM 160057Z AUTO 25005KT 1/4SM FG VV002 14/14 A2997 RMK AO2 SLP151 T01440144 $
Observed Flight Rules
Dec-16 @ 00:57 UTC (28 minutes ago) Instrument Flight Rules
Wind Visibility Clouds Conditions
250° at 5 knots 1/4 miles
  • Vertical visibility at 200' AGL
  • Fog
Temperatures Readings
Current 14°C / 57°F
Dewpoint 14°C / 57°F
Humidity 100%
Altimeter 29.97" Hg
Pressure 1015.1 hPa
Elevation 7
METAR KNJM 160057Z AUTO 25005KT 1/4SM FG VV002 14/14 A2997 RMK AO2 SLP151 T01440144 $
Observed Flight Rules
Dec-16 @ 00:57 UTC
(28 minutes ago)
LIFR
Wind Visibility
250° at 5 knots 1/4 miles
Clouds
  • Vertical visibility at 200' AGL
Conditions
  • Fog
Temperature Dewpoint
14°C / 57°F 14°C / 57°F
Humidity Altimeter Pressure
100% 29.97" Hg 1015.1 hPa